sensor_id;sensor_type;location;lat;lon;timestamp;pressure;altitude;pressure_sealevel;temperature;humidity
40994;BME280;26722;43.212;27.932;2023-03-26T00:01:03;55162.53;;;-146.72;92.62
40994;BME280;26722;43.212;27.932;2023-03-26T00:03:30;55166.75;;;-146.72;92.56
40994;BME280;26722;43.212;27.932;2023-03-26T00:06:16;55166.75;;;-146.72;91.43
40994;BME280;26722;43.212;27.932;2023-03-26T00:08:43;55170.97;;;-146.72;91.32
40994;BME280;26722;43.212;27.932;2023-03-26T00:11:12;55162.53;;;-146.72;91.22
40994;BME280;26722;43.212;27.932;2023-03-26T00:13:38;55173.09;;;-146.72;91.37
40994;BME280;26722;43.212;27.932;2023-03-26T00:16:05;55177.31;;;-146.72;91.38
40994;BME280;26722;43.212;27.932;2023-03-26T00:18:31;55166.75;;;-146.72;91.13
40994;BME280;26722;43.212;27.932;2023-03-26T00:21:01;55162.53;;;-146.72;90.62
40994;BME280;26722;43.212;27.932;2023-03-26T00:23:28;55151.97;;;-146.72;90.64
40994;BME280;26722;43.212;27.932;2023-03-26T00:25:54;55156.22;;;-146.72;90.62
40994;BME280;26722;43.212;27.932;2023-03-26T00:28:22;55179.44;;;-146.72;90.39
40994;BME280;26722;43.212;27.932;2023-03-26T00:30:59;55141.44;;;-146.72;89.70
40994;BME280;26722;43.212;27.932;2023-03-26T00:33:25;55158.31;;;-146.72;89.09
40994;BME280;26722;43.212;27.932;2023-03-26T00:35:52;55175.22;;;-146.72;88.77
40994;BME280;26722;43.212;27.932;2023-03-26T00:38:19;55175.22;;;-146.72;89.08
40994;BME280;26722;43.212;27.932;2023-03-26T00:40:47;55166.75;;;-146.72;89.04
40994;BME280;26722;43.212;27.932;2023-03-26T00:43:15;55158.31;;;-146.72;89.12
40994;BME280;26722;43.212;27.932;2023-03-26T00:45:49;55187.88;;;-146.72;90.02
40994;BME280;26722;43.212;27.932;2023-03-26T00:48:16;55190.00;;;-146.72;90.64
40994;BME280;26722;43.212;27.932;2023-03-26T00:50:44;55170.97;;;-146.72;91.45
40994;BME280;26722;43.212;27.932;2023-03-26T00:53:11;55202.66;;;-146.72;91.51
40994;BME280;26722;43.212;27.932;2023-03-26T00:55:38;55192.09;;;-146.72;92.15
40994;BME280;26722;43.212;27.932;2023-03-26T00:58:04;55217.44;;;-146.72;92.63
40994;BME280;26722;43.212;27.932;2023-03-26T01:00:33;55192.09;;;-146.72;93.26
40994;BME280;26722;43.212;27.932;2023-03-26T01:03:03;55196.31;;;-146.72;93.58
40994;BME280;26722;43.212;27.932;2023-03-26T01:08:00;55187.88;;;-146.72;93.83
40994;BME280;26722;43.212;27.932;2023-03-26T01:10:27;55194.22;;;-146.72;94.17
40994;BME280;26722;43.212;27.932;2023-03-26T01:12:54;55187.88;;;-146.72;93.74
40994;BME280;26722;43.212;27.932;2023-03-26T01:15:20;55194.22;;;-146.72;93.63
40994;BME280;26722;43.212;27.932;2023-03-26T01:17:46;55187.88;;;-146.72;93.20
40994;BME280;26722;43.212;27.932;2023-03-26T01:20:21;55183.66;;;-146.72;93.13
40994;BME280;26722;43.212;27.932;2023-03-26T01:22:53;55179.44;;;-146.72;93.78
40994;BME280;26722;43.212;27.932;2023-03-26T01:25:22;55196.31;;;-146.72;93.77
40994;BME280;26722;43.212;27.932;2023-03-26T01:27:53;55213.22;;;-146.72;93.58
40994;BME280;26722;43.212;27.932;2023-03-26T01:30:29;55183.66;;;-146.72;93.77
40994;BME280;26722;43.212;27.932;2023-03-26T01:33:04;55198.44;;;-146.72;93.48
40994;BME280;26722;43.212;27.932;2023-03-26T01:35:50;55175.22;;;-146.72;93.59
40994;BME280;26722;43.212;27.932;2023-03-26T01:41:16;55179.44;;;-146.72;93.46
40994;BME280;26722;43.212;27.932;2023-03-26T01:44:03;55181.53;;;-146.72;93.00
40994;BME280;26722;43.212;27.932;2023-03-26T01:46:32;55179.44;;;-146.72;92.84
40994;BME280;26722;43.212;27.932;2023-03-26T01:49:04;55187.88;;;-146.72;92.49
40994;BME280;26722;43.212;27.932;2023-03-26T01:51:33;55175.22;;;-146.72;92.57
40994;BME280;26722;43.212;27.932;2023-03-26T01:54:03;55158.31;;;-146.72;92.26
40994;BME280;26722;43.212;27.932;2023-03-26T01:59:52;55179.44;;;-146.72;92.12
40994;BME280;26722;43.212;27.932;2023-03-26T02:02:36;55158.31;;;-146.72;92.12
40994;BME280;26722;43.212;27.932;2023-03-26T02:05:37;55173.09;;;-146.72;91.83
40994;BME280;26722;43.212;27.932;2023-03-26T02:09:06;55183.66;;;-146.72;92.02
40994;BME280;26722;43.212;27.932;2023-03-26T02:11:03;55170.97;;;-146.72;91.96
40994;BME280;26722;43.212;27.932;2023-03-26T02:13:30;55175.22;;;-146.72;91.83
40994;BME280;26722;43.212;27.932;2023-03-26T02:16:01;55170.97;;;-146.72;91.64
40994;BME280;26722;43.212;27.932;2023-03-26T02:18:28;55175.22;;;-146.72;91.80
40994;BME280;26722;43.212;27.932;2023-03-26T02:21:09;55166.75;;;-146.72;91.42
40994;BME280;26722;43.212;27.932;2023-03-26T02:23:37;55164.66;;;-146.72;91.31
40994;BME280;26722;43.212;27.932;2023-03-26T02:26:09;55175.22;;;-146.72;91.21
40994;BME280;26722;43.212;27.932;2023-03-26T02:28:35;55198.44;;;-146.72;91.21
40994;BME280;26722;43.212;27.932;2023-03-26T02:31:00;55192.09;;;-146.72;91.08
40994;BME280;26722;43.212;27.932;2023-03-26T02:33:29;55151.97;;;-146.72;90.71
40994;BME280;26722;43.212;27.932;2023-03-26T02:35:56;55170.97;;;-146.72;90.47
40994;BME280;26722;43.212;27.932;2023-03-26T02:38:31;55175.22;;;-146.72;89.93
40994;BME280;26722;43.212;27.932;2023-03-26T02:41:00;55181.53;;;-146.72;89.56
40994;BME280;26722;43.212;27.932;2023-03-26T02:43:27;55177.31;;;-146.72;88.82
40994;BME280;26722;43.212;27.932;2023-03-26T02:45:52;55156.22;;;-146.72;88.65
40994;BME280;26722;43.212;27.932;2023-03-26T02:48:18;55156.22;;;-146.72;87.54
40994;BME280;26722;43.212;27.932;2023-03-26T02:50:44;55162.53;;;-146.72;86.99
40994;BME280;26722;43.212;27.932;2023-03-26T02:53:10;55162.53;;;-146.72;86.47
40994;BME280;26722;43.212;27.932;2023-03-26T02:55:38;55154.09;;;-146.72;86.79
40994;BME280;26722;43.212;27.932;2023-03-26T02:58:03;55170.97;;;-146.72;86.83
40994;BME280;26722;43.212;27.932;2023-03-26T03:00:29;55151.97;;;-146.72;86.82
40994;BME280;26722;43.212;27.932;2023-03-26T03:02:54;55164.66;;;-146.72;87.20
40994;BME280;26722;43.212;27.932;2023-03-26T03:05:22;55162.53;;;-146.72;86.84
40994;BME280;26722;43.212;27.932;2023-03-26T03:07:51;55147.75;;;-146.72;86.38
40994;BME280;26722;43.212;27.932;2023-03-26T03:10:16;55149.88;;;-146.72;85.86
40994;BME280;26722;43.212;27.932;2023-03-26T03:12:46;55154.09;;;-146.72;85.88
40994;BME280;26722;43.212;27.932;2023-03-26T03:15:12;55145.66;;;-146.72;85.14
40994;BME280;26722;43.212;27.932;2023-03-26T03:17:38;55141.44;;;-146.72;85.12
40994;BME280;26722;43.212;27.932;2023-03-26T03:20:05;55151.97;;;-146.72;84.40
40994;BME280;26722;43.212;27.932;2023-03-26T03:22:34;55162.53;;;-146.72;84.01
40994;BME280;26722;43.212;27.932;2023-03-26T03:24:59;55149.88;;;-146.72;84.11
40994;BME280;26722;43.212;27.932;2023-03-26T03:27:25;55149.88;;;-146.72;83.50
40994;BME280;26722;43.212;27.932;2023-03-26T03:29:51;55141.44;;;-146.72;83.09
40994;BME280;26722;43.212;27.932;2023-03-26T03:32:21;55149.88;;;-146.72;82.70
40994;BME280;26722;43.212;27.932;2023-03-26T03:34:48;55139.31;;;-146.72;82.77
40994;BME280;26722;43.212;27.932;2023-03-26T03:37:17;55145.66;;;-146.72;82.21
40994;BME280;26722;43.212;27.932;2023-03-26T03:39:43;55158.31;;;-146.72;82.29
40994;BME280;26722;43.212;27.932;2023-03-26T03:42:09;55137.22;;;-146.72;81.89
40994;BME280;26722;43.212;27.932;2023-03-26T03:44:35;55130.88;;;-146.72;82.33
40994;BME280;26722;43.212;27.932;2023-03-26T03:47:00;55135.09;;;-146.72;82.46
40994;BME280;26722;43.212;27.932;2023-03-26T03:49:26;55151.97;;;-146.72;82.81
40994;BME280;26722;43.212;27.932;2023-03-26T03:51:51;55154.09;;;-146.72;82.84
40994;BME280;26722;43.212;27.932;2023-03-26T03:54:17;55141.44;;;-146.72;83.16
40994;BME280;26722;43.212;27.932;2023-03-26T03:56:42;55149.88;;;-146.72;83.42
40994;BME280;26722;43.212;27.932;2023-03-26T03:59:10;55149.88;;;-146.72;83.53
40994;BME280;26722;43.212;27.932;2023-03-26T04:01:36;55160.44;;;-146.72;83.01
40994;BME280;26722;43.212;27.932;2023-03-26T04:04:01;55126.66;;;-146.72;82.11
40994;BME280;26722;43.212;27.932;2023-03-26T04:06:27;55166.75;;;-146.72;81.64
40994;BME280;26722;43.212;27.932;2023-03-26T04:08:55;55137.22;;;-146.72;80.79
40994;BME280;26722;43.212;27.932;2023-03-26T04:11:21;55122.44;;;-146.72;79.72
40994;BME280;26722;43.212;27.932;2023-03-26T04:13:46;55141.44;;;-146.72;78.92
40994;BME280;26722;43.212;27.932;2023-03-26T04:16:12;55132.97;;;-146.72;78.78
40994;BME280;26722;43.212;27.932;2023-03-26T04:18:37;55111.88;;;-146.72;78.61
40994;BME280;26722;43.212;27.932;2023-03-26T04:21:04;55132.97;;;-146.72;78.17
40994;BME280;26722;43.212;27.932;2023-03-26T04:23:32;55126.66;;;-146.72;78.11
40994;BME280;26722;43.212;27.932;2023-03-26T04:26:01;55128.75;;;-146.72;77.79
40994;BME280;26722;43.212;27.932;2023-03-26T04:30:56;55101.31;;;-146.72;77.56
40994;BME280;26722;43.212;27.932;2023-03-26T04:33:28;55137.22;;;-146.72;77.49
40994;BME280;26722;43.212;27.932;2023-03-26T04:35:55;55120.31;;;-146.72;77.63
40994;BME280;26722;43.212;27.932;2023-03-26T04:38:27;55107.66;;;-146.72;77.86
40994;BME280;26722;43.212;27.932;2023-03-26T04:40:52;55120.31;;;-146.72;77.76
40994;BME280;26722;43.212;27.932;2023-03-26T04:43:18;55113.97;;;-146.72;77.75
40994;BME280;26722;43.212;27.932;2023-03-26T04:45:44;55128.75;;;-146.72;77.96
40994;BME280;26722;43.212;27.932;2023-03-26T04:48:12;55113.97;;;-146.72;77.99
40994;BME280;26722;43.212;27.932;2023-03-26T04:50:40;55122.44;;;-146.72;78.13
40994;BME280;26722;43.212;27.932;2023-03-26T04:53:09;55116.09;;;-146.72;78.04
40994;BME280;26722;43.212;27.932;2023-03-26T04:58:44;55118.19;;;-146.72;78.27
40994;BME280;26722;43.212;27.932;2023-03-26T05:01:10;55111.88;;;-146.72;78.52
40994;BME280;26722;43.212;27.932;2023-03-26T05:03:35;55107.66;;;-146.72;78.75
40994;BME280;26722;43.212;27.932;2023-03-26T05:06:03;55132.97;;;-146.72;78.73
40994;BME280;26722;43.212;27.932;2023-03-26T05:08:29;55132.97;;;-146.72;79.18
40994;BME280;26722;43.212;27.932;2023-03-26T05:10:54;55128.75;;;-146.72;79.21
40994;BME280;26722;43.212;27.932;2023-03-26T05:13:21;55124.53;;;-146.72;79.27
40994;BME280;26722;43.212;27.932;2023-03-26T05:15:47;55128.75;;;-146.72;79.24
40994;BME280;26722;43.212;27.932;2023-03-26T05:18:12;55111.88;;;-146.72;79.00
40994;BME280;26722;43.212;27.932;2023-03-26T05:20:38;55101.31;;;-146.72;79.32
40994;BME280;26722;43.212;27.932;2023-03-26T05:23:03;55124.53;;;-146.72;79.23
40994;BME280;26722;43.212;27.932;2023-03-26T05:25:29;55147.75;;;-146.72;79.31
40994;BME280;26722;43.212;27.932;2023-03-26T05:27:54;55103.44;;;-146.72;79.75
40994;BME280;26722;43.212;27.932;2023-03-26T05:30:20;55124.53;;;-146.72;79.67
40994;BME280;26722;43.212;27.932;2023-03-26T05:32:47;55141.44;;;-146.72;79.57
40994;BME280;26722;43.212;27.932;2023-03-26T05:35:14;55099.19;;;-146.72;80.04
40994;BME280;26722;43.212;27.932;2023-03-26T05:37:42;55128.75;;;-146.72;79.94
40994;BME280;26722;43.212;27.932;2023-03-26T05:40:10;55128.75;;;-146.72;79.92
40994;BME280;26722;43.212;27.932;2023-03-26T05:42:38;55120.31;;;-146.72;79.36
40994;BME280;26722;43.212;27.932;2023-03-26T05:45:09;55124.53;;;-146.72;79.00
40994;BME280;26722;43.212;27.932;2023-03-26T05:47:35;55109.75;;;-146.72;78.67
40994;BME280;26722;43.212;27.932;2023-03-26T05:50:01;55103.44;;;-146.72;78.49
40994;BME280;26722;43.212;27.932;2023-03-26T05:52:27;55111.88;;;-146.72;77.42
40994;BME280;26722;43.212;27.932;2023-03-26T05:54:52;55132.97;;;-146.72;77.41
40994;BME280;26722;43.212;27.932;2023-03-26T05:57:18;55116.09;;;-146.72;76.77
40994;BME280;26722;43.212;27.932;2023-03-26T05:59:43;55122.44;;;-146.72;76.65
40994;BME280;26722;43.212;27.932;2023-03-26T06:02:09;55122.44;;;-146.72;76.00
40994;BME280;26722;43.212;27.932;2023-03-26T06:04:35;55097.09;;;-146.72;75.75
40994;BME280;26722;43.212;27.932;2023-03-26T06:07:06;55101.31;;;-146.72;75.64
40994;BME280;26722;43.212;27.932;2023-03-26T06:09:38;55088.66;;;-146.72;75.71
40994;BME280;26722;43.212;27.932;2023-03-26T06:12:08;55103.44;;;-146.72;75.49
40994;BME280;26722;43.212;27.932;2023-03-26T06:14:34;55105.53;;;-146.72;75.04
40994;BME280;26722;43.212;27.932;2023-03-26T06:17:00;55099.19;;;-146.72;74.47
40994;BME280;26722;43.212;27.932;2023-03-26T06:19:25;55105.53;;;-146.72;74.20
40994;BME280;26722;43.212;27.932;2023-03-26T06:21:51;55116.09;;;-146.72;74.18
40994;BME280;26722;43.212;27.932;2023-03-26T06:24:16;55107.66;;;-146.72;73.58
40994;BME280;26722;43.212;27.932;2023-03-26T06:26:44;55111.88;;;-146.72;73.38
40994;BME280;26722;43.212;27.932;2023-03-26T06:29:11;55099.19;;;-146.72;72.98
40994;BME280;26722;43.212;27.932;2023-03-26T06:31:36;55105.53;;;-146.72;72.30
40994;BME280;26722;43.212;27.932;2023-03-26T06:34:02;55099.19;;;-146.72;71.59
40994;BME280;26722;43.212;27.932;2023-03-26T06:36:27;55094.97;;;-146.72;71.85
40994;BME280;26722;43.212;27.932;2023-03-26T06:38:53;55099.19;;;-146.72;71.42
40994;BME280;26722;43.212;27.932;2023-03-26T06:41:18;55113.97;;;-146.72;71.56
40994;BME280;26722;43.212;27.932;2023-03-26T06:43:44;55116.09;;;-146.72;71.03
40994;BME280;26722;43.212;27.932;2023-03-26T06:46:10;55109.75;;;-146.72;70.67
40994;BME280;26722;43.212;27.932;2023-03-26T06:48:35;55097.09;;;-146.72;70.64
40994;BME280;26722;43.212;27.932;2023-03-26T06:51:01;55124.53;;;-146.72;70.42
40994;BME280;26722;43.212;27.932;2023-03-26T06:53:26;55118.19;;;-146.72;70.16
40994;BME280;26722;43.212;27.932;2023-03-26T06:55:52;55107.66;;;-146.72;69.72
40994;BME280;26722;43.212;27.932;2023-03-26T06:58:19;55107.66;;;-146.72;68.99
40994;BME280;26722;43.212;27.932;2023-03-26T07:00:44;55099.19;;;-146.72;68.47
40994;BME280;26722;43.212;27.932;2023-03-26T07:03:10;55086.53;;;-146.72;68.04
40994;BME280;26722;43.212;27.932;2023-03-26T07:05:36;55111.88;;;-146.72;67.59
40994;BME280;26722;43.212;27.932;2023-03-26T07:08:02;55088.66;;;-146.72;66.70
40994;BME280;26722;43.212;27.932;2023-03-26T07:10:27;55097.09;;;-146.72;66.36
40994;BME280;26722;43.212;27.932;2023-03-26T07:12:53;55099.19;;;-146.72;66.64
40994;BME280;26722;43.212;27.932;2023-03-26T07:15:18;55111.88;;;-146.72;66.25
40994;BME280;26722;43.212;27.932;2023-03-26T07:17:44;55088.66;;;-146.72;66.05
40994;BME280;26722;43.212;27.932;2023-03-26T07:20:10;55111.88;;;-146.72;66.38
40994;BME280;26722;43.212;27.932;2023-03-26T07:22:36;55103.44;;;-146.72;66.51
40994;BME280;26722;43.212;27.932;2023-03-26T07:25:02;55094.97;;;-146.72;66.30
40994;BME280;26722;43.212;27.932;2023-03-26T07:30:25;55099.19;;;-146.72;65.11
40994;BME280;26722;43.212;27.932;2023-03-26T07:33:00;55088.66;;;-146.72;64.42
40994;BME280;26722;43.212;27.932;2023-03-26T07:35:35;55086.53;;;-146.72;64.40
40994;BME280;26722;43.212;27.932;2023-03-26T07:41:04;55078.09;;;-146.72;63.70
40994;BME280;26722;43.212;27.932;2023-03-26T07:46:31;55086.53;;;-146.72;61.90
40994;BME280;26722;43.212;27.932;2023-03-26T07:48:58;55084.44;;;-146.72;62.00
40994;BME280;26722;43.212;27.932;2023-03-26T07:51:26;55084.44;;;-146.72;61.48
40994;BME280;26722;43.212;27.932;2023-03-26T07:53:52;55084.44;;;-146.72;60.76
40994;BME280;26722;43.212;27.932;2023-03-26T07:57:07;55090.75;;;-146.72;61.42
40994;BME280;26722;43.212;27.932;2023-03-26T08:05:19;55078.09;;;-146.72;61.54
40994;BME280;26722;43.212;27.932;2023-03-26T08:16:48;55103.44;;;-146.72;61.72
40994;BME280;26722;43.212;27.932;2023-03-26T08:22:22;55090.75;;;-146.72;61.10
40994;BME280;26722;43.212;27.932;2023-03-26T08:27:31;55080.19;;;-146.72;59.72
40994;BME280;26722;43.212;27.932;2023-03-26T08:30:29;55054.88;;;-146.72;59.75
40994;BME280;26722;43.212;27.932;2023-03-26T08:32:59;55073.88;;;-146.72;57.92
40994;BME280;26722;43.212;27.932;2023-03-26T08:35:26;55069.66;;;-146.72;57.49
40994;BME280;26722;43.212;27.932;2023-03-26T08:37:52;55065.41;;;-146.72;57.80
40994;BME280;26722;43.212;27.932;2023-03-26T09:02:04;55056.97;;;-146.72;52.84
40994;BME280;26722;43.212;27.932;2023-03-26T09:10:37;55056.97;;;-146.72;52.90
40994;BME280;26722;43.212;27.932;2023-03-26T09:19:01;55046.41;;;-146.72;53.25
40994;BME280;26722;43.212;27.932;2023-03-26T09:24:35;55033.75;;;-146.72;50.27
40994;BME280;26722;43.212;27.932;2023-03-26T10:00:15;55063.31;;;-146.72;51.20
40994;BME280;26722;43.212;27.932;2023-03-26T10:02:39;55048.53;;;-146.72;49.25
40994;BME280;26722;43.212;27.932;2023-03-26T10:08:38;55056.97;;;-146.72;47.91
40994;BME280;26722;43.212;27.932;2023-03-26T10:11:28;55059.09;;;-146.72;47.97
40994;BME280;26722;43.212;27.932;2023-03-26T10:32:47;55059.09;;;-146.72;50.15
40994;BME280;26722;43.212;27.932;2023-03-26T10:35:30;55048.53;;;-146.72;48.90
40994;BME280;26722;43.212;27.932;2023-03-26T10:38:15;55040.09;;;-146.72;48.33
40994;BME280;26722;43.212;27.932;2023-03-26T10:41:13;55056.97;;;-146.72;49.38
40994;BME280;26722;43.212;27.932;2023-03-26T10:46:40;55059.09;;;-146.72;50.30
40994;BME280;26722;43.212;27.932;2023-03-26T10:52:22;55065.41;;;-146.72;49.23
40994;BME280;26722;43.212;27.932;2023-03-26T10:55:13;55065.41;;;-146.72;49.58
40994;BME280;26722;43.212;27.932;2023-03-26T10:57:46;55063.31;;;-146.72;48.64
40994;BME280;26722;43.212;27.932;2023-03-26T11:00:19;55048.53;;;-146.72;48.73
40994;BME280;26722;43.212;27.932;2023-03-26T11:06:00;55088.66;;;-146.72;48.48
40994;BME280;26722;43.212;27.932;2023-03-26T11:11:39;55056.97;;;-146.72;47.31
40994;BME280;26722;43.212;27.932;2023-03-26T11:19:46;55065.41;;;-146.72;45.47
40994;BME280;26722;43.212;27.932;2023-03-26T11:28:03;55048.53;;;-146.72;45.61
40994;BME280;26722;43.212;27.932;2023-03-26T11:33:26;55042.19;;;-146.72;45.00
40994;BME280;26722;43.212;27.932;2023-03-26T11:35:58;55033.75;;;-146.72;45.30
40994;BME280;26722;43.212;27.932;2023-03-26T11:38:31;55042.19;;;-146.72;45.34
40994;BME280;26722;43.212;27.932;2023-03-26T11:41:02;55035.88;;;-146.72;45.34
40994;BME280;26722;43.212;27.932;2023-03-26T11:43:32;55050.66;;;-146.72;44.52
40994;BME280;26722;43.212;27.932;2023-03-26T11:46:05;55056.97;;;-146.72;43.86
40994;BME280;26722;43.212;27.932;2023-03-26T11:48:39;55065.41;;;-146.72;42.96
40994;BME280;26722;43.212;27.932;2023-03-26T11:51:08;55052.75;;;-146.72;42.76
40994;BME280;26722;43.212;27.932;2023-03-26T11:53:36;55040.09;;;-146.72;41.57
40994;BME280;26722;43.212;27.932;2023-03-26T11:59:27;55014.75;;;-146.72;40.52
40994;BME280;26722;43.212;27.932;2023-03-26T12:01:55;55035.88;;;-146.72;40.57
40994;BME280;26722;43.212;27.932;2023-03-26T12:04:35;55027.41;;;-146.72;40.47
40994;BME280;26722;43.212;27.932;2023-03-26T12:07:15;55033.75;;;-146.72;40.34
40994;BME280;26722;43.212;27.932;2023-03-26T12:09:54;55027.41;;;-146.72;41.03
40994;BME280;26722;43.212;27.932;2023-03-26T12:12:24;55018.97;;;-146.72;41.03
40994;BME280;26722;43.212;27.932;2023-03-26T12:14:50;55033.75;;;-146.72;41.21
40994;BME280;26722;43.212;27.932;2023-03-26T12:17:35;55044.31;;;-146.72;40.34
40994;BME280;26722;43.212;27.932;2023-03-26T12:22:55;55040.09;;;-146.72;39.72
40994;BME280;26722;43.212;27.932;2023-03-26T12:25:25;55046.41;;;-146.72;39.10
40994;BME280;26722;43.212;27.932;2023-03-26T12:31:00;55040.09;;;-146.72;38.77
40994;BME280;26722;43.212;27.932;2023-03-26T12:33:31;55033.75;;;-146.72;38.57
40994;BME280;26722;43.212;27.932;2023-03-26T12:36:24;55014.75;;;-146.72;38.26
40994;BME280;26722;43.212;27.932;2023-03-26T12:38:54;55037.97;;;-146.72;37.96
40994;BME280;26722;43.212;27.932;2023-03-26T12:41:32;55014.75;;;-146.72;37.70
40994;BME280;26722;43.212;27.932;2023-03-26T12:46:50;55037.97;;;-146.72;38.47
40994;BME280;26722;43.212;27.932;2023-03-26T12:49:18;55023.19;;;-146.72;38.73
40994;BME280;26722;43.212;27.932;2023-03-26T12:51:50;55018.97;;;-146.72;38.66
40994;BME280;26722;43.212;27.932;2023-03-26T12:54:30;55027.41;;;-146.72;39.00
40994;BME280;26722;43.212;27.932;2023-03-26T13:00:04;55023.19;;;-146.72;37.92
40994;BME280;26722;43.212;27.932;2023-03-26T13:05:44;55031.66;;;-146.72;38.17
40994;BME280;26722;43.212;27.932;2023-03-26T13:19:14;55023.19;;;-146.72;37.44
40994;BME280;26722;43.212;27.932;2023-03-26T13:33:14;54997.88;;;-146.72;36.92
40994;BME280;26722;43.212;27.932;2023-03-26T13:35:54;55004.19;;;-146.72;36.74
40994;BME280;26722;43.212;27.932;2023-03-26T13:43:47;55018.97;;;-146.72;37.30
40994;BME280;26722;43.212;27.932;2023-03-26T13:46:37;54997.88;;;-146.72;37.67
40994;BME280;26722;43.212;27.932;2023-03-26T13:49:11;55004.19;;;-146.72;37.99
40994;BME280;26722;43.212;27.932;2023-03-26T13:51:55;55040.09;;;-146.72;38.36
40994;BME280;26722;43.212;27.932;2023-03-26T13:59:40;55023.19;;;-146.72;37.99
40994;BME280;26722;43.212;27.932;2023-03-26T14:02:12;55027.41;;;-146.72;43.01
40994;BME280;26722;43.212;27.932;2023-03-26T14:04:45;55042.19;;;-146.72;46.06
40994;BME280;26722;43.212;27.932;2023-03-26T14:07:28;55031.66;;;-146.72;47.95
40994;BME280;26722;43.212;27.932;2023-03-26T14:10:07;55033.75;;;-146.72;49.49
40994;BME280;26722;43.212;27.932;2023-03-26T14:15:28;55046.41;;;-146.72;51.85
40994;BME280;26722;43.212;27.932;2023-03-26T14:29:27;55061.19;;;-146.72;54.17
40994;BME280;26722;43.212;27.932;2023-03-26T14:40:27;55056.97;;;-146.72;54.92
40994;BME280;26722;43.212;27.932;2023-03-26T14:43:33;55037.97;;;-146.72;55.32
40994;BME280;26722;43.212;27.932;2023-03-26T14:54:43;55050.66;;;-146.72;55.35
40994;BME280;26722;43.212;27.932;2023-03-26T15:13:58;55078.09;;;-146.72;56.65
40994;BME280;26722;43.212;27.932;2023-03-26T15:45:34;55082.31;;;-146.72;62.22
40994;BME280;26722;43.212;27.932;2023-03-26T15:53:37;55111.88;;;-146.72;63.84
40994;BME280;26722;43.212;27.932;2023-03-26T16:07:24;55092.88;;;-146.72;65.31
40994;BME280;26722;43.212;27.932;2023-03-26T16:12:44;55120.31;;;-146.72;66.02
40994;BME280;26722;43.212;27.932;2023-03-26T16:15:45;55116.09;;;-146.72;66.58
40994;BME280;26722;43.212;27.932;2023-03-26T16:18:18;55124.53;;;-146.72;66.63
40994;BME280;26722;43.212;27.932;2023-03-26T16:34:05;55132.97;;;-146.72;69.72
40994;BME280;26722;43.212;27.932;2023-03-26T16:36:43;55139.31;;;-146.72;70.58
40994;BME280;26722;43.212;27.932;2023-03-26T16:39:23;55154.09;;;-146.72;71.34
40994;BME280;26722;43.212;27.932;2023-03-26T16:42:02;55124.53;;;-146.72;72.07
40994;BME280;26722;43.212;27.932;2023-03-26T16:44:39;55132.97;;;-146.72;72.91
40994;BME280;26722;43.212;27.932;2023-03-26T16:47:26;55130.88;;;-146.72;73.30
40994;BME280;26722;43.212;27.932;2023-03-26T16:55:53;55135.09;;;-146.72;74.74
40994;BME280;26722;43.212;27.932;2023-03-26T17:03:59;55137.22;;;-146.72;75.98
40994;BME280;26722;43.212;27.932;2023-03-26T17:12:57;55130.88;;;-146.72;77.68
40994;BME280;26722;43.212;27.932;2023-03-26T17:18:32;55145.66;;;-146.72;77.99
40994;BME280;26722;43.212;27.932;2023-03-26T17:21:18;55141.44;;;-146.72;78.25
40994;BME280;26722;43.212;27.932;2023-03-26T17:32:11;55145.66;;;-146.72;78.08
40994;BME280;26722;43.212;27.932;2023-03-26T17:44:49;55145.66;;;-146.72;77.54
40994;BME280;26722;43.212;27.932;2023-03-26T17:49:59;55154.09;;;-146.72;77.92
40994;BME280;26722;43.212;27.932;2023-03-26T17:52:43;55149.88;;;-146.72;78.27
40994;BME280;26722;43.212;27.932;2023-03-26T17:55:16;55149.88;;;-146.72;77.73
40994;BME280;26722;43.212;27.932;2023-03-26T17:57:43;55147.75;;;-146.72;77.44
40994;BME280;26722;43.212;27.932;2023-03-26T18:00:15;55130.88;;;-146.72;77.28
40994;BME280;26722;43.212;27.932;2023-03-26T18:02:47;55137.22;;;-146.72;76.97
40994;BME280;26722;43.212;27.932;2023-03-26T18:05:15;55147.75;;;-146.72;76.72
40994;BME280;26722;43.212;27.932;2023-03-26T18:18:53;55162.53;;;-146.72;76.76
40994;BME280;26722;43.212;27.932;2023-03-26T18:21:38;55145.66;;;-146.72;76.24
40994;BME280;26722;43.212;27.932;2023-03-26T18:24:06;55137.22;;;-146.72;76.03
40994;BME280;26722;43.212;27.932;2023-03-26T18:26:44;55147.75;;;-146.72;75.93
40994;BME280;26722;43.212;27.932;2023-03-26T18:29:25;55132.97;;;-146.72;75.36
40994;BME280;26722;43.212;27.932;2023-03-26T18:31:54;55128.75;;;-146.72;75.16
40994;BME280;26722;43.212;27.932;2023-03-26T18:34:23;55135.09;;;-146.72;75.24
40994;BME280;26722;43.212;27.932;2023-03-26T18:39:38;55137.22;;;-146.72;74.99
40994;BME280;26722;43.212;27.932;2023-03-26T18:42:05;55130.88;;;-146.72;74.97
40994;BME280;26722;43.212;27.932;2023-03-26T18:44:34;55137.22;;;-146.72;74.81
40994;BME280;26722;43.212;27.932;2023-03-26T18:47:04;55132.97;;;-146.72;74.27
40994;BME280;26722;43.212;27.932;2023-03-26T18:49:31;55149.88;;;-146.72;74.21
40994;BME280;26722;43.212;27.932;2023-03-26T18:51:57;55141.44;;;-146.72;74.30
40994;BME280;26722;43.212;27.932;2023-03-26T18:54:23;55118.19;;;-146.72;74.57
40994;BME280;26722;43.212;27.932;2023-03-26T18:56:51;55145.66;;;-146.72;74.63
40994;BME280;26722;43.212;27.932;2023-03-26T18:59:31;55139.31;;;-146.72;74.42
40994;BME280;26722;43.212;27.932;2023-03-26T19:02:02;55132.97;;;-146.72;74.68
40994;BME280;26722;43.212;27.932;2023-03-26T19:04:30;55132.97;;;-146.72;74.71
40994;BME280;26722;43.212;27.932;2023-03-26T19:06:59;55126.66;;;-146.72;74.43